Ellisville Junction, Mississippi
Current Conditions -  °F | °C
As of 1:15 PM on Thursday 30 Oct 2014 (Local Time) from KPIB Reporting Station
Clear Clear  
Wind Chill: 72°   Ceiling: Unl
Heat Index: 72°   Visibility: 10mi
Dew Point: 37°   Wind: 5mph
Humidity: 29%   Direction: 340°NNW
Pressure: 30.11"   Gusts: NA
Location:  31.5533°N, 89.2322°W
Report Text: KPIB 301815Z AUTO 34004KT 10SM CLR 22/03 A3011 RMK AO1
Loading
Personal Weather Stations






























Interactive Weather Map
Tropical Storm Tracking
New forecast layout! Learn more

10-Day Weather Forecast

Advertisements
Track Severe Weather on mobile